x

South Michigan - 43nm East Southeast Of Milwaukee, Wi (45007) Wave Buoy

9:50pm - Sun 28th May 2017 All times are CDT. -5 hours from GMT.

  • Sig Wave height 0.3ft
  • Average Period 2s
  • Wind
    11mph, 13mph gusts
  • Sea Temp 49°f
  • Air Temp 51°f
  • Sea Pressure 1007.2mb
  • South Michigan - 43nm East Southeast Of Milwaukee, Wi
  • South Michigan - 43nm East Southeast Of Milwaukee, Wi

More Historic Weather Station data

Upgrade to MSW Pro to gain access to the past 30 days of data for over 8000 Wavebouys and Weather Stations around the globe.

Join Pro

Comparision Forecast

View Surf forecast
   
Sun 05/28 9:50pm 0.3ft  -  2s 11 13 mph 1007.2mb 49f 51f
8:50pm 0.3ft  -  3s 11 13 mph 1006.7mb 49f 51f
7:50pm 0.3ft  -  3s 11 11 mph 1006.6mb 50f 52f
6:50pm 0.3ft  -  3s 7 7 mph 1006.7mb 50f 52f
5:50pm 0.3ft  -  3s 4 4 mph 1006.6mb 51f 51f
4:50pm 0.3ft  -  3s 2 2 mph 1006.6mb 50f 52f
3:50pm 0.3ft  -  2s 7 7 mph 1006.7mb 50f 51f
2:50pm 0.3ft  -  2s 2 4 mph 1006.9mb 49f 53f
1:50pm 0.3ft  -  3s 7 9 mph 1006.9mb 48f 53f
12:50pm  -   -  3s 9 11 mph 1007.2mb 48f 51f
11:50am 0.3ft  -  3s 11 13 mph 1007.2mb 49f 52f
10:50am 0.3ft  -  3s 9 9 mph 1008mb 50f 52f
9:50am  -   -  4s 4 4 mph 1008mb 51f 53f
8:50am  -   -  3s 2 2 mph 1007.6mb 50f 55f
7:50am  -   -  3s 2 4 mph 1007.5mb 50f 53f
6:50am  -   -  3s 4 4 mph 1006.8mb 49f 52f
5:50am  -   -  3s 4 4 mph 1007.3mb 49f 54f
4:50am  -   -  3s 4 7 mph 1007.6mb 49f 54f
3:50am  -   -  3s 2 2 mph 1008.8mb 49f 54f
2:50am 0.3ft  -  3s 4 4 mph 1009.2mb 49f 53f
1:50am 0.3ft  -  3s 4 7 mph 1009.9mb 49f 52f
12:50am 0.3ft  -  3s 4 4 mph 1009.9mb 49f 53f
Sat 05/27 11:50pm 0.3ft  -  3s 4 4 mph 1010.4mb 49f 53f
10:50pm 0.3ft  -  3s 9 9 mph 1010.6mb 50f 53f
9:50pm 0.3ft  -  3s 7 7 mph 1010.8mb 50f 53f
8:50pm 0.3ft  -  3s 4 7 mph 1010.9mb 51f 54f
7:50pm 0.3ft  -  4s 4 7 mph 1011.4mb 52f 57f
6:50pm 0.3ft  -  3s 4 4 mph 1011.4mb 52f 55f
5:50pm 0.3ft  -  3s 2 4 mph 1011.8mb 52f 55f
4:50pm 0.3ft  -  4s 7 7 mph 1011.8mb 52f 54f
3:50pm  -   -  3s 4 4 mph 1012.7mb 52f 53f
2:50pm 0.3ft  -  3s 4 4 mph 1013.6mb 50f 52f
1:50pm 0.3ft  -  3s 4 4 mph 1013.5mb 50f 53f
12:50pm 0.3ft  -  3s 4 4 mph 1013.5mb 52f 53f
11:50am 0.3ft  -  3s 4 4 mph 1013.1mb 51f 52f
10:50am 0.3ft  -  3s 2 2 mph 1013.7mb 50f 51f
9:50am 0.3ft  -  3s 4 4 mph 1013.7mb 48f 49f
8:50am 0.3ft  -  3s 4 4 mph 1013.6mb 47f 49f
7:50am 0.3ft  -  3s 4 4 mph 1013.7mb 46f 49f
6:50am 0.3ft  -  3s 4 4 mph 1012.7mb 46f 49f
5:50am 0.3ft  -  3s 4 4 mph 1012.6mb 46f 48f
4:50am 0.3ft  -  3s 7 9 mph 1012.1mb 46f 47f
3:50am 0.3ft  -  3s 7 7 mph 1012mb 46f 48f
2:50am 0.3ft  -  3s 4 7 mph 1011.8mb 46f 48f
1:50am 0.3ft  -  3s 7 9 mph 1011.7mb 46f 48f
12:50am 0.3ft  -  3s 9 11 mph 1012.1mb 46f 48f
Fri 05/26 11:50pm 0.3ft  -  3s 2 4 mph 1011.7mb 46f 47f
10:50pm 0.3ft  -  3s 7 7 mph 1011.5mb 46f 49f
9:50pm 0.3ft  -  3s 7 7 mph 1011.6mb 46f 48f
8:50pm 0.3ft  -  3s 4 7 mph 1011.5mb 47f 49f
7:50pm 0.3ft  -   -  2 4 mph 1011.5mb 47f 49f
6:50pm 0.7ft  -  3s 7 9 mph 1010.7mb 47f 49f
5:50pm 0.7ft  -  3s 4 7 mph 1011.4mb 48f 49f
4:50pm 0.7ft  -  3s 4 7 mph 1011.2mb 48f 49f
3:50pm 0.7ft  -  3s 2 2 mph 1011.2mb 48f 49f
2:50pm 0.7ft  -  3s 2 2 mph 1011.4mb 48f 49f
1:50pm 0.7ft  -  3s  -  0 mph 1011.6mb 47f 49f
12:50pm 0.7ft  -  3s 4 4 mph 1011.2mb 47f 48f
11:50am 1ft 3s 3s 2 2 mph 1011.7mb 47f 47f
10:50am 1ft 4s 3s 4 7 mph 1012.2mb 46f 47f
9:50am 1ft 4s 3s 2 7 mph 1012.3mb 46f 46f
8:50am 1ft 4s 3s 9 11 mph 1011.5mb 46f 45f
7:50am 1ft 4s 3s 9 11 mph 1011.5mb 45f 46f
6:50am 1.3ft 4s 4s 7 7 mph 1011.8mb 45f 45f
5:50am 1.3ft 5s 4s 7 9 mph 1010.7mb 45f 46f
4:50am 1.3ft 5s 4s 9 9 mph 1010.2mb 45f 46f
3:50am 1.6ft 5s 4s 9 9 mph 1009.7mb 45f 47f
2:50am 1.6ft 5s 4s 9 9 mph 1008.8mb 45f 47f
1:50am 2ft 5s 4s 9 11 mph 1008.2mb 45f 47f
12:50am 2ft 5s 4s 11 13 mph 1008.1mb 45f 48f
Thu 05/25 11:50pm 2.5ft 5s 4s 11 11 mph 1007.7mb 45f 48f
10:50pm 2.5ft 5s 4s 13 16 mph 1007.3mb 46f 48f
9:50pm 2.5ft 5s 4s 11 13 mph 1006.7mb 46f 47f
8:50pm 2.5ft 5s 4s 13 16 mph 1005.6mb 46f 49f
7:50pm 2.5ft 5s 4s 11 13 mph 1005.1mb 46f 47f
6:50pm 2.5ft 5s 4s 9 11 mph 1004.4mb 46f 48f
5:50pm 2.5ft 5s 4s 13 16 mph 1004mb 46f 48f
4:50pm 2.5ft 5s 4s 16 18 mph 1003.6mb 45f 47f
3:50pm 2.5ft 5s 4s 16 18 mph 1003.4mb 45f 46f
2:50pm 2.5ft 5s 4s 16 16 mph 1003.4mb 45f 46f
1:50pm 2.5ft 5s 4s 16 18 mph 1003mb 45f 46f
12:50pm 2.5ft 5s 4s 13 18 mph 1002.8mb 45f 46f
11:50am 3ft 5s 4s 13 16 mph 1002.6mb 45f 46f
10:50am 2.5ft 5s 4s 13 16 mph 1002.4mb 45f 46f
9:50am 3ft 5s 4s 16 18 mph 1002.5mb 45f 46f
8:50am 3ft 5s 4s 18 20 mph 1001.8mb 45f 46f
7:50am 3ft 5s 4s 16 18 mph 1001.4mb 45f 46f
6:50am 3ft 5s 4s 16 20 mph 1001.2mb 45f 46f
5:50am 3ft 6s 4s 16 18 mph 1000.9mb 45f 46f
4:50am 2.5ft 5s 4s 16 20 mph 1000.5mb 45f 46f